San Antonio International Airport
KSAT : now visible

Airfield :











YOU CAN JOIN US ON...

 
LOGIN :

Register | Disclaimer

   EN    FR    IT 

 









Legend :    VFR   Marginal VFR   IFR   Intensive IFR   Very Intensive IFR
Visi :
Ceiling :
>= 8 km
>= 3000ft
5 to 8 km
1000 to 3000 ft
1500m to 5 km
500 to 1000 ft
800 to 1500m
200 to 500 ft
< 800m
< 200 ft
Symbols :   Thunderstorms  Fog  Heavy snow  Heavy precipitations  Wind > 20 kt






- Airport Elevation : 809 ft
- IATA code : SAT


KSAT - San Antonio International

CURRENT METAR :
  • 151513Z 00000KT 1/4SM R13R/0600V1400FT FG VV002 12/11 A2983 RMK AO2 T01220111 $

EXPIRED METARs :
  • 151451Z 00000KT 1/4SM R13R/P6000FT FG VV002 12/11 A2982 RMK AO2 SFC VIS 1/2 SLP087 T01170106 53017 $
  • 151436Z COR 00000KT 1/4SM R13R/P6000FT HZ BKN002 OVC004 11/08 A2981 RMK AO2 SFC VIS 5 TWR IN CLDS T01060078
  • 151426Z 00000KT 10SM BKN005 OVC250 10/07 A2981 RMK AO2 T01000067
  • 151351Z 28004KT 10SM CLR 08/06 A2980 RMK AO2 SLP081 T00830056
  • 151251Z 32003KT 10SM CLR 08/04 A2978 RMK AO2 SLP072 T00780044

TAF KSAT
Valid from the 15 at 14:00 until the 16 at 18:00 UTC


151426Z 1514/1618 VRB03KT 3SM BR BKN003
TEMPO 1514/1516 1/2SM FG OVC002
FM151600 18005KT 6SM BR BKN006
FM151700 18010KT P6SM SCT040
FM160100 16007KT P6SM FEW050 OVC100
FM160800 16005KT 5SM BR BKN012
FM161000 24005KT 2SM BR OVC006
FM161600 36012G22KT P6SM BKN050



MET'MAP, your aeronautical weather chart ! - Copyright ORBIFLY December 2007 - Disclaimer

ORBIFLY MET'MAP TEAM :

Programming & Development : Alexandra Zaïnal
Concept & original design : Baudouin d'Aumeries
Assistance for programming : Marc-Olivier Méhu
Technical & hardware support : Manuel Goepfert

Contact : metmap@orbifly.com




SOURCES & CREDITS :

   NOAA       Earth
Advisory